Time;durP1;ratioP1;P1;durP2;ratioP2;P2;SDS_P1;SDS_P2;PMS_P1;PMS_P2;Temp;Humidity;BMP_temperature;BMP_pressure;BME280_temperature;BME280_humidity;BME280_pressure;Samples;Min_cycle;Max_cycle;Signal;HPM_P1;HPM_P2
2022/09/11 00:01:13;;;;;;;2.67;1.58;;;16.70;99.90;;;;;;4971834;28;20022;-69
2022/09/11 00:03:41;;;;;;;1.08;0.75;;;16.70;99.90;;;;;;4971901;28;20030;-68
2022/09/11 00:06:11;;;;;;;2.33;1.17;;;16.70;99.90;;;;;;4972281;28;20050;-68
2022/09/11 00:08:39;;;;;;;1.20;0.82;;;16.70;99.90;;;;;;4971128;28;20102;-69
2022/09/11 00:11:08;;;;;;;2.05;0.93;;;16.70;99.90;;;;;;4971749;28;20030;-68
2022/09/11 00:13:35;;;;;;;1.83;1.33;;;16.80;99.90;;;;;;4971783;28;20031;-69
2022/09/11 00:16:05;;;;;;;5.05;1.60;;;16.70;99.90;;;;;;4971582;28;20476;-68
2022/09/11 00:18:34;;;;;;;3.67;1.00;;;16.70;99.90;;;;;;4972082;28;20038;-68
2022/09/11 00:21:02;;;;;;;1.55;1.08;;;16.70;99.90;;;;;;4970399;28;20490;-68
2022/09/11 00:23:28;;;;;;;1.77;1.00;;;16.70;99.90;;;;;;4970506;28;20051;-68
2022/09/11 00:25:54;;;;;;;2.03;0.90;;;16.70;99.90;;;;;;4970803;28;20122;-68
2022/09/11 00:28:24;;;;;;;2.22;1.30;;;16.80;99.90;;;;;;4970608;28;20093;-68
2022/09/11 00:31:20;;;;;;;1.45;0.80;;;16.70;99.90;;;;;;4970458;28;20039;-68
2022/09/11 00:33:47;;;;;;;1.30;0.95;;;16.70;99.90;;;;;;4971083;28;20446;-68
2022/09/11 00:36:17;;;;;;;1.60;1.27;;;16.80;99.90;;;;;;4970443;28;20023;-68
2022/09/11 00:38:45;;;;;;;1.98;1.05;;;16.80;99.90;;;;;;4954432;28;20380;-68
2022/09/11 00:41:23;;;;;;;2.30;1.30;;;16.90;99.90;;;;;;4971688;28;20199;-68
2022/09/11 00:43:54;;;;;;;2.10;1.15;;;16.90;99.90;;;;;;4971373;28;20026;-68
2022/09/11 00:46:45;;;;;;;6.68;1.38;;;16.90;99.90;;;;;;4971834;28;20043;-69
2022/09/11 00:49:38;;;;;;;3.60;1.00;;;16.90;99.90;;;;;;4970195;28;20027;-68
2022/09/11 00:52:22;;;;;;;1.73;0.98;;;16.90;99.90;;;;;;4963967;28;20063;-69
2022/09/11 00:54:56;;;;;;;2.65;1.17;;;16.90;99.90;;;;;;4971717;28;20110;-68
2022/09/11 00:57:27;;;;;;;1.35;1.05;;;17.00;99.90;;;;;;4973160;28;20495;-68
2022/09/11 00:59:54;;;;;;;4.50;2.05;;;17.00;99.90;;;;;;4975298;28;20088;-68
2022/09/11 01:02:22;;;;;;;2.67;1.60;;;16.90;99.90;;;;;;4974630;28;20041;-69
2022/09/11 01:04:49;;;;;;;2.40;1.48;;;16.90;99.90;;;;;;4956699;28;20034;-68
2022/09/11 01:07:18;;;;;;;2.50;1.25;;;17.00;99.90;;;;;;4975001;28;20876;-68
2022/09/11 01:09:44;;;;;;;1.50;1.20;;;17.00;99.90;;;;;;4973409;28;20037;-68
2022/09/11 01:12:31;;;;;;;2.92;1.65;;;17.00;99.90;;;;;;4989534;28;20047;-68
2022/09/11 01:15:13;;;;;;;2.80;1.40;;;17.00;99.90;;;;;;4975127;28;20031;-68
2022/09/11 01:18:12;;;;;;;2.35;1.27;;;17.10;99.90;;;;;;4975072;28;20034;-68
2022/09/11 01:20:52;;;;;;;2.45;1.38;;;17.10;99.90;;;;;;4958483;28;20035;-68
2022/09/11 01:23:49;;;;;;;2.47;1.38;;;17.20;99.90;;;;;;4959405;28;20038;-69
2022/09/11 01:26:52;;;;;;;3.25;1.20;;;17.20;99.90;;;;;;4979672;28;20707;-69
2022/09/11 01:29:33;;;;;;;2.83;1.90;;;17.20;99.90;;;;;;4979029;28;20033;-68
2022/09/11 01:32:17;;;;;;;2.47;1.48;;;17.30;99.90;;;;;;4977275;28;20026;-68
2022/09/11 01:35:26;;;;;;;2.65;1.30;;;17.20;99.90;;;;;;4978126;28;20038;-68
2022/09/11 01:38:17;;;;;;;1.92;1.23;;;17.20;99.90;;;;;;4914491;29;20107;-68
2022/09/11 01:40:52;;;;;;;2.47;1.13;;;17.20;99.90;;;;;;4971824;28;20391;-69
2022/09/11 01:43:31;;;;;;;3.42;1.83;;;17.20;99.90;;;;;;4974049;28;20090;-68
2022/09/11 01:46:01;;;;;;;3.17;1.58;;;17.20;99.90;;;;;;4957716;28;20031;-68
2022/09/11 01:48:37;;;;;;;3.28;1.50;;;17.30;99.90;;;;;;4957508;28;20110;-67
2022/09/11 01:51:06;;;;;;;5.35;1.65;;;17.20;99.90;;;;;;4957178;28;20053;-67
2022/09/11 01:53:37;;;;;;;2.97;1.60;;;17.20;99.90;;;;;;4956902;28;20035;-68
2022/09/11 01:56:12;;;;;;;12.00;2.33;;;17.30;99.90;;;;;;4974560;28;20038;-68
2022/09/11 01:58:39;;;;;;;2.83;1.70;;;17.20;99.90;;;;;;4957150;28;20114;-68
2022/09/11 02:01:18;;;;;;;4.03;2.00;;;17.30;99.90;;;;;;4956847;28;20046;-68
2022/09/11 02:03:58;;;;;;;2.83;1.80;;;17.20;99.90;;;;;;4956985;28;20165;-68
2022/09/11 02:06:53;;;;;;;3.42;1.83;;;17.10;99.90;;;;;;4974317;28;20035;-69
2022/09/11 02:09:24;;;;;;;2.67;1.67;;;17.10;99.90;;;;;;4957681;28;20054;-68
2022/09/11 02:11:51;;;;;;;;;;;17.10;99.90;;;;;;4957551;28;20030;-68
2022/09/11 02:14:34;;;;;;;3.60;2.13;;;17.10;99.90;;;;;;4972360;28;19918;-68
2022/09/11 02:17:25;;;;;;;2.92;1.73;;;17.20;99.90;;;;;;4977084;28;20038;-68
2022/09/11 02:19:54;;;;;;;2.45;1.77;;;17.20;99.90;;;;;;4993122;28;20125;-68
2022/09/11 02:22:19;;;;;;;3.30;1.63;;;17.10;99.90;;;;;;4975199;28;20038;-68
2022/09/11 02:24:45;;;;;;;2.53;1.88;;;17.10;99.90;;;;;;4975835;28;20035;-68
2022/09/11 02:27:17;;;;;;;3.75;2.15;;;17.00;99.90;;;;;;4993149;28;20026;-68
2022/09/11 02:29:43;;;;;;;3.10;1.95;;;17.00;99.90;;;;;;4975760;28;20278;-67
2022/09/11 02:32:11;;;;;;;4.68;2.08;;;17.10;99.90;;;;;;4975309;28;20035;-68
2022/09/11 02:34:41;;;;;;;4.13;2.03;;;17.10;99.90;;;;;;4975772;28;20402;-68
2022/09/11 02:37:31;;;;;;;4.78;2.60;;;17.10;99.90;;;;;;4975730;28;20084;-68
2022/09/11 02:40:36;;;;;;;4.15;2.83;;;17.00;99.90;;;;;;4977792;28;20085;-68
2022/09/11 02:43:21;;;;;;;3.50;1.92;;;17.10;99.90;;;;;;4978306;28;20034;-68
2022/09/11 02:45:53;;;;;;;4.13;1.88;;;17.20;99.90;;;;;;4992932;28;20036;-68
2022/09/11 02:48:52;;;;;;;2.15;1.42;;;17.10;99.90;;;;;;4975372;28;20441;-69
2022/09/11 02:51:38;;;;;;;4.30;1.90;;;17.10;99.90;;;;;;4992636;28;20055;-69
2022/09/11 02:54:23;;;;;;;7.57;2.42;;;17.10;99.90;;;;;;4992227;28;20042;-68
2022/09/11 02:57:12;;;;;;;11.65;2.90;;;17.20;99.90;;;;;;4992485;28;20478;-68
2022/09/11 02:59:45;;;;;;;3.35;2.30;;;17.20;99.90;;;;;;4992183;28;20106;-69
2022/09/11 03:02:14;;;;;;;9.32;2.30;;;17.20;99.90;;;;;;4975390;28;20084;-69
2022/09/11 03:04:40;;;;;;;3.30;1.98;;;17.20;99.90;;;;;;4992640;28;20689;-68
2022/09/11 03:07:06;;;;;;;3.30;2.17;;;17.20;99.90;;;;;;4975259;28;20054;-68
2022/09/11 03:09:33;;;;;;;5.38;2.25;;;17.20;99.90;;;;;;4991907;28;20080;-68
2022/09/11 03:12:00;;;;;;;5.35;2.13;;;17.10;99.90;;;;;;4991921;28;20026;-67
2022/09/11 03:14:26;;;;;;;3.97;2.33;;;17.10;99.90;;;;;;4990809;28;20023;-68
2022/09/11 03:16:52;;;;;;;2.28;1.52;;;17.10;99.90;;;;;;4972889;28;20161;-68
2022/09/11 03:19:17;;;;;;;4.53;2.83;;;17.10;99.90;;;;;;4972274;28;20035;-68
2022/09/11 03:21:43;;;;;;;2.42;1.55;;;17.00;99.90;;;;;;4972657;28;20114;-68
2022/09/11 03:24:09;;;;;;;3.53;2.00;;;17.00;99.90;;;;;;4971912;28;20038;-67
2022/09/11 03:26:36;;;;;;;3.92;2.05;;;17.10;99.90;;;;;;4955208;28;20113;-69
2022/09/11 03:29:03;;;;;;;4.38;1.73;;;17.10;99.90;;;;;;4955027;28;20031;-68
2022/09/11 03:31:29;;;;;;;3.78;2.67;;;17.00;99.90;;;;;;4955388;28;20034;-69
2022/09/11 03:33:54;;;;;;;4.00;1.98;;;16.90;99.90;;;;;;4954949;28;20138;-68
2022/09/11 03:36:21;;;;;;;2.95;1.95;;;16.90;99.90;;;;;;4973010;28;20106;-68
2022/09/11 03:38:47;;;;;;;8.55;2.78;;;17.00;99.90;;;;;;4971661;28;20030;-68
2022/09/11 03:41:14;;;;;;;3.38;2.28;;;16.90;99.90;;;;;;4972161;28;20511;-68
2022/09/11 03:43:39;;;;;;;3.88;2.17;;;16.90;99.90;;;;;;4954761;28;20029;-68
2022/09/11 03:46:05;;;;;;;4.15;2.30;;;16.90;99.90;;;;;;4972415;28;20030;-68
2022/09/11 03:48:31;;;;;;;4.85;2.47;;;16.80;99.90;;;;;;4972163;28;20031;-68
2022/09/11 03:50:57;;;;;;;4.18;2.40;;;16.80;99.90;;;;;;4970624;28;20023;-69
2022/09/11 03:53:24;;;;;;;5.22;2.45;;;16.80;99.90;;;;;;4954495;28;20070;-68
2022/09/11 03:55:50;;;;;;;4.07;2.30;;;16.80;99.90;;;;;;4972237;28;20041;-69
2022/09/11 03:58:18;;;;;;;4.13;2.70;;;16.90;99.90;;;;;;4972464;28;20383;-69
2022/09/11 04:00:45;;;;;;;3.97;2.45;;;16.90;99.90;;;;;;4954576;28;20027;-68
2022/09/11 04:03:13;;;;;;;4.25;2.42;;;17.00;99.90;;;;;;4954537;28;20039;-68
2022/09/11 04:05:39;;;;;;;4.32;2.08;;;17.00;99.90;;;;;;4972107;28;20129;-68
2022/09/11 04:08:05;;;;;;;4.00;2.00;;;17.00;99.90;;;;;;4971986;28;20105;-69
2022/09/11 04:10:33;;;;;;;4.70;1.92;;;17.10;99.90;;;;;;4971673;28;20491;-69
2022/09/11 04:12:59;;;;;;;4.82;2.92;;;17.10;99.90;;;;;;4971388;28;20041;-69
2022/09/11 04:15:25;;;;;;;2.95;1.65;;;17.00;99.90;;;;;;4964013;28;20622;-68
2022/09/11 04:17:51;;;;;;;3.20;1.98;;;16.90;99.90;;;;;;4991482;28;20140;-69
2022/09/11 04:20:17;;;;;;;3.03;1.95;;;16.90;99.90;;;;;;4990986;28;20026;-69
2022/09/11 04:22:42;;;;;;;4.88;2.22;;;16.90;99.90;;;;;;4990936;28;20088;-68
2022/09/11 04:25:09;;;;;;;2.63;1.77;;;16.90;99.90;;;;;;4991384;28;20033;-68
2022/09/11 04:27:35;;;;;;;6.38;2.55;;;16.90;99.90;;;;;;4991000;28;20046;-69
2022/09/11 04:30:01;;;;;;;3.35;1.75;;;16.90;99.90;;;;;;4990820;28;20027;-69
2022/09/11 04:32:28;;;;;;;2.67;1.60;;;16.90;99.90;;;;;;4993732;28;20042;-68
2022/09/11 04:34:53;;;;;;;4.50;2.17;;;16.80;99.90;;;;;;4977919;28;20482;-69
2022/09/11 04:37:19;;;;;;;3.15;2.22;;;16.70;99.90;;;;;;4994928;28;20045;-69
2022/09/11 04:39:46;;;;;;;2.92;2.03;;;16.80;99.90;;;;;;4977475;28;20031;-69
2022/09/11 04:42:11;;;;;;;6.85;1.50;;;16.80;99.90;;;;;;4994719;28;20033;-69
2022/09/11 04:44:38;;;;;;;3.13;2.00;;;16.70;99.90;;;;;;4995178;28;20030;-68
2022/09/11 04:47:03;;;;;;;3.95;2.17;;;16.70;99.90;;;;;;4995103;28;20456;-68
2022/09/11 04:49:29;;;;;;;2.42;1.52;;;16.70;99.90;;;;;;4977440;28;20118;-68
2022/09/11 04:51:56;;;;;;;3.38;2.40;;;16.70;99.90;;;;;;4994716;28;20434;-69
2022/09/11 04:54:22;;;;;;;3.30;2.20;;;16.70;99.90;;;;;;4994654;28;20489;-68
2022/09/11 04:56:49;;;;;;;3.20;1.80;;;16.70;99.90;;;;;;4994708;28;20026;-69
2022/09/11 04:59:21;;;;;;;3.60;2.30;;;16.70;99.90;;;;;;4994435;28;20113;-70
2022/09/11 05:01:47;;;;;;;12.07;3.13;;;16.80;99.90;;;;;;4994929;28;20026;-69
2022/09/11 05:04:15;;;;;;;3.78;2.05;;;16.80;99.90;;;;;;4977083;28;20026;-70
2022/09/11 05:06:46;;;;;;;3.58;2.40;;;16.80;99.90;;;;;;4977543;28;20101;-69
2022/09/11 05:09:11;;;;;;;4.45;1.95;;;16.70;99.90;;;;;;4994414;28;20029;-69
2022/09/11 05:11:38;;;;;;;3.92;2.67;;;16.70;99.90;;;;;;4994173;28;20038;-69
2022/09/11 05:14:04;;;;;;;3.90;2.45;;;16.70;99.90;;;;;;4994339;28;20034;-69
2022/09/11 05:16:33;;;;;;;4.97;1.83;;;16.80;99.90;;;;;;4959566;28;20506;-69
2022/09/11 05:19:00;;;;;;;5.25;2.72;;;16.80;99.90;;;;;;4962709;28;20038;-69
2022/09/11 05:21:27;;;;;;;3.00;2.00;;;16.80;99.90;;;;;;4955814;28;20489;-69
2022/09/11 05:23:56;;;;;;;3.35;1.60;;;16.90;99.90;;;;;;4973186;28;20034;-70
2022/09/11 05:26:26;;;;;;;2.78;1.92;;;16.90;99.90;;;;;;4960333;28;20034;-70
2022/09/11 05:28:58;;;;;;;8.20;2.50;;;16.90;99.90;;;;;;4954800;28;20546;-70
2022/09/11 05:31:25;;;;;;;6.32;2.45;;;16.90;99.90;;;;;;4952006;28;20527;-69
2022/09/11 05:33:54;;;;;;;4.05;2.45;;;17.00;99.90;;;;;;4953481;29;20495;-69
2022/09/11 05:36:21;;;;;;;5.78;2.22;;;17.00;99.90;;;;;;4969705;28;20035;-69
2022/09/11 05:38:47;;;;;;;3.97;2.80;;;17.10;99.90;;;;;;4954996;28;20173;-69
2022/09/11 05:41:13;;;;;;;3.45;1.83;;;17.10;99.90;;;;;;4955014;28;20027;-70
2022/09/11 05:43:41;;;;;;;4.30;3.17;;;17.10;99.90;;;;;;4969681;28;20070;-70
2022/09/11 05:46:12;;;;;;;3.28;2.03;;;17.20;99.90;;;;;;4955012;28;20036;-70
2022/09/11 05:48:38;;;;;;;;;;;17.20;99.90;;;;;;4955483;28;20031;-70
2022/09/11 05:51:11;;;;;;;4.20;2.72;;;17.20;99.90;;;;;;4969218;28;19910;-70
2022/09/11 05:53:37;;;;;;;5.70;2.15;;;17.20;99.90;;;;;;4954802;28;20166;-69
2022/09/11 05:56:18;;;;;;;3.55;1.80;;;17.20;99.90;;;;;;4969588;28;20028;-70
2022/09/11 05:58:46;;;;;;;3.38;2.20;;;17.20;99.90;;;;;;4953302;29;20053;-70
2022/09/11 06:01:15;;;;;;;3.75;2.03;;;17.30;99.90;;;;;;4954073;29;20039;-70
2022/09/11 06:03:41;;;;;;;3.65;1.88;;;17.30;99.90;;;;;;4954756;28;20043;-70
2022/09/11 06:06:10;;;;;;;3.88;1.95;;;17.30;99.90;;;;;;4961935;28;20027;-69
2022/09/11 06:08:38;;;;;;;2.03;1.60;;;17.40;99.90;;;;;;4972914;28;20090;-70
2022/09/11 06:11:06;;;;;;;4.97;2.63;;;17.40;99.90;;;;;;4973262;28;20388;-68
2022/09/11 06:13:35;;;;;;;3.03;2.08;;;17.40;99.90;;;;;;4973722;28;20035;-69
2022/09/11 06:16:02;;;;;;;2.88;1.77;;;17.30;99.90;;;;;;4972959;28;20061;-69
2022/09/11 06:18:28;;;;;;;3.65;2.03;;;17.20;99.90;;;;;;4968089;28;20042;-69
2022/09/11 06:20:59;;;;;;;3.60;1.92;;;17.20;99.90;;;;;;4949348;29;20023;-69
2022/09/11 06:23:25;;;;;;;4.40;2.13;;;17.20;99.90;;;;;;4959548;28;20034;-69
2022/09/11 06:25:53;;;;;;;3.50;2.25;;;17.20;99.90;;;;;;4956627;28;20507;-69
2022/09/11 06:28:22;;;;;;;6.78;2.58;;;17.20;99.90;;;;;;4954175;29;20059;-69
2022/09/11 06:30:52;;;;;;;5.65;2.38;;;17.20;99.90;;;;;;4952131;29;20031;-68
2022/09/11 06:33:19;;;;;;;5.60;2.40;;;17.20;99.90;;;;;;4953680;29;20126;-69
2022/09/11 06:36:09;;;;;;;7.35;2.40;;;17.30;99.90;;;;;;4953793;29;20034;-71
2022/09/11 06:38:37;;;;;;;3.78;2.15;;;17.30;99.90;;;;;;4952858;29;20031;-69
2022/09/11 06:41:05;;;;;;;5.25;2.55;;;17.40;99.90;;;;;;4952168;29;20024;-69
2022/09/11 06:43:32;;;;;;;3.88;2.55;;;17.40;99.90;;;;;;4952438;29;20031;-70
2022/09/11 06:46:14;;;;;;;7.65;2.75;;;17.40;99.90;;;;;;4953764;29;20039;-68
2022/09/11 06:48:42;;;;;;;4.43;2.65;;;17.50;99.90;;;;;;4953647;29;20046;-70
2022/09/11 06:51:12;;;;;;;5.45;3.17;;;17.50;99.90;;;;;;4968081;28;20031;-68
2022/09/11 06:53:39;;;;;;;3.70;2.67;;;17.50;99.90;;;;;;4959192;28;20031;-70
2022/09/11 06:56:06;;;;;;;8.52;2.70;;;17.70;99.90;;;;;;4953449;28;20035;-69
2022/09/11 06:58:32;;;;;;;4.72;2.70;;;17.70;99.90;;;;;;4952305;29;20027;-69
2022/09/11 07:01:07;;;;;;;4.13;2.42;;;17.70;99.90;;;;;;4953018;29;20028;-69
2022/09/11 07:03:33;;;;;;;6.10;3.28;;;17.70;99.90;;;;;;4951627;28;20049;-70
2022/09/11 07:05:59;;;;;;;6.40;3.78;;;17.80;99.90;;;;;;4960847;28;20043;-69
2022/09/11 07:08:26;;;;;;;6.85;3.28;;;17.70;99.90;;;;;;4961005;28;20053;-69
2022/09/11 07:10:51;;;;;;;3.42;2.10;;;17.70;99.90;;;;;;4960375;28;20034;-69
2022/09/11 07:13:18;;;;;;;4.43;2.17;;;17.90;99.90;;;;;;4971950;28;20042;-69
2022/09/11 07:15:46;;;;;;;3.17;1.90;;;18.10;99.90;;;;;;4966675;28;20031;-70
2022/09/11 07:18:12;;;;;;;7.53;3.60;;;18.10;99.90;;;;;;4934188;29;20091;-70
2022/09/11 07:20:40;;;;;;;6.97;3.88;;;18.10;99.90;;;;;;4916492;29;20034;-69
2022/09/11 07:23:07;;;;;;;4.80;3.25;;;18.00;99.90;;;;;;4932818;29;20036;-69
2022/09/11 07:25:37;;;;;;;9.07;3.03;;;17.90;99.90;;;;;;4952851;28;20042;-69
2022/09/11 07:28:03;;;;;;;6.43;3.55;;;17.80;99.90;;;;;;4952793;28;20069;-69
2022/09/11 07:30:31;;;;;;;6.13;3.75;;;17.90;99.90;;;;;;4952798;29;20038;-69
2022/09/11 07:32:57;;;;;;;6.32;3.75;;;18.00;99.90;;;;;;4952595;29;20078;-69
2022/09/11 07:35:23;;;;;;;5.70;3.50;;;18.10;99.90;;;;;;4948068;28;20503;-70
2022/09/11 07:37:49;;;;;;;5.63;3.83;;;18.20;99.90;;;;;;4938928;29;20106;-69
2022/09/11 07:40:15;;;;;;;9.50;4.97;;;18.20;99.90;;;;;;4952522;28;20131;-69
2022/09/11 07:42:41;;;;;;;8.88;3.53;;;18.20;99.90;;;;;;4952352;28;20106;-69
2022/09/11 07:45:07;;;;;;;9.60;4.90;;;18.20;99.90;;;;;;4953085;28;20073;-69
2022/09/11 07:47:33;;;;;;;7.20;3.85;;;18.30;99.90;;;;;;4953219;28;20504;-68
2022/09/11 07:49:59;;;;;;;7.43;4.85;;;18.30;99.90;;;;;;4952207;28;20058;-68
2022/09/11 07:52:25;;;;;;;6.13;3.42;;;18.30;99.90;;;;;;4952623;28;20138;-69
2022/09/11 07:54:51;;;;;;;7.10;4.65;;;18.40;99.90;;;;;;4952812;28;20039;-70
2022/09/11 07:57:18;;;;;;;7.40;3.78;;;18.60;99.90;;;;;;4952917;28;20618;-68
2022/09/11 07:59:45;;;;;;;7.82;3.75;;;18.80;99.90;;;;;;4952425;29;20404;-70
2022/09/11 08:02:11;;;;;;;6.55;3.63;;;18.90;99.90;;;;;;4952686;28;20023;-71
2022/09/11 08:04:37;;;;;;;10.35;5.32;;;19.10;99.90;;;;;;4951342;29;20160;-69
2022/09/11 08:07:03;;;;;;;6.07;4.07;;;19.10;99.90;;;;;;4952029;28;20027;-69
2022/09/11 08:09:28;;;;;;;9.50;4.20;;;19.10;99.90;;;;;;4952315;29;20031;-69
2022/09/11 08:11:57;;;;;;;8.55;3.88;;;19.20;99.90;;;;;;4951330;29;20042;-69
2022/09/11 08:14:26;;;;;;;7.10;3.75;;;19.30;99.90;;;;;;4935767;29;20034;-69
2022/09/11 08:16:53;;;;;;;6.43;3.53;;;19.40;99.90;;;;;;4952744;29;20056;-69
2022/09/11 08:19:22;;;;;;;5.40;3.70;;;19.20;99.90;;;;;;4952425;29;20023;-70
2022/09/11 08:21:49;;;;;;;11.35;4.72;;;19.50;99.90;;;;;;4952230;29;20122;-69
2022/09/11 08:24:16;;;;;;;26.23;11.55;;;19.70;99.90;;;;;;4951842;29;20118;-68
2022/09/11 08:26:42;;;;;;;10.35;4.38;;;19.80;99.90;;;;;;4952273;29;20051;-69
2022/09/11 08:29:08;;;;;;;6.20;3.75;;;19.90;99.90;;;;;;4950992;29;20547;-68
2022/09/11 08:31:34;;;;;;;6.80;3.85;;;20.20;99.90;;;;;;4952416;28;20122;-68
2022/09/11 08:34:00;;;;;;;8.10;3.75;;;20.10;99.90;;;;;;4952284;28;20037;-68
2022/09/11 08:36:27;;;;;;;7.18;3.67;;;20.00;99.90;;;;;;4951164;29;20024;-68
2022/09/11 08:38:53;;;;;;;6.25;3.67;;;20.00;99.90;;;;;;4952019;28;20271;-68
2022/09/11 08:41:22;;;;;;;6.78;2.78;;;19.90;99.90;;;;;;4952122;28;20043;-69
2022/09/11 08:44:08;;;;;;;5.95;3.38;;;19.80;99.90;;;;;;4952036;28;20054;-69
2022/09/11 08:46:57;;;;;;;6.75;4.10;;;19.70;99.90;;;;;;4952422;28;20031;-71
2022/09/11 08:49:36;;;;;;;6.55;3.17;;;19.80;99.90;;;;;;4950726;29;20039;-71
2022/09/11 08:52:04;;;;;;;6.90;2.95;;;20.00;99.90;;;;;;4950679;29;20031;-70
2022/09/11 08:54:37;;;;;;;8.40;4.00;;;20.10;99.90;;;;;;4951034;29;20068;-71
2022/09/11 08:57:53;;;;;;;8.82;4.57;;;20.20;99.90;;;;;;4950912;29;20027;-77
2022/09/11 09:00:47;;;;;;;4.53;2.78;;;20.20;99.90;;;;;;4951480;29;20059;-67
2022/09/11 09:03:34;;;;;;;6.15;2.70;;;20.10;99.90;;;;;;4948683;28;20035;-82
2022/09/11 09:06:43;;;;;;;7.88;4.05;;;20.20;99.90;;;;;;4933379;29;20070;-70
2022/09/11 09:10:25;;;;;;;4.80;2.63;;;20.20;99.90;;;;;;4939686;28;20105;-69
2022/09/11 09:13:30;;;;;;;6.18;3.92;;;20.40;99.90;;;;;;4836272;29;20046;-72
2022/09/11 09:16:30;;;;;;;9.20;3.10;;;20.80;99.90;;;;;;4836677;29;20050;-68
2022/09/11 09:19:09;;;;;;;15.60;4.45;;;21.00;99.90;;;;;;4890836;29;20501;-68
2022/09/11 09:22:09;;;;;;;6.03;2.95;;;21.30;99.90;;;;;;4866035;29;20040;-68
2022/09/11 09:24:47;;;;;;;5.32;3.03;;;21.20;99.90;;;;;;4877363;29;20045;-68
2022/09/11 09:27:29;;;;;;;6.97;3.42;;;21.00;99.90;;;;;;4877130;29;20044;-67
2022/09/11 09:29:57;;;;;;;7.05;3.08;;;20.80;99.90;;;;;;4862083;29;20129;-68
2022/09/11 09:32:32;;;;;;;4.95;2.63;;;20.60;99.90;;;;;;4876663;29;20037;-68
2022/09/11 09:35:09;;;;;;;7.38;3.13;;;20.60;99.90;;;;;;4862260;29;20033;-68
2022/09/11 09:37:37;;;;;;;5.95;3.10;;;20.60;99.90;;;;;;4862220;29;20048;-68
2022/09/11 09:40:08;;;;;;;9.30;4.05;;;20.50;99.90;;;;;;4861435;29;20123;-68
2022/09/11 09:43:35;;;;;;;5.35;3.17;;;20.50;99.90;;;;;;4888711;29;20075;-68
2022/09/11 09:46:12;;;;;;;5.70;3.13;;;20.60;99.90;;;;;;4914619;29;20552;-68
2022/09/11 09:48:38;;;;;;;5.32;3.15;;;20.30;99.90;;;;;;4914588;29;20082;-68
2022/09/11 09:51:09;;;;;;;7.85;3.95;;;20.30;99.90;;;;;;4914152;29;20050;-68
2022/09/11 09:53:49;;;;;;;7.00;4.00;;;20.30;99.90;;;;;;4899097;29;20040;-68
2022/09/11 09:56:18;;;;;;;4.90;2.88;;;20.30;99.90;;;;;;4910945;29;20040;-68
2022/09/11 09:59:01;;;;;;;3.90;2.30;;;20.20;99.90;;;;;;4879610;29;20044;-68
2022/09/11 10:01:46;;;;;;;11.13;4.30;;;20.40;99.90;;;;;;4880372;29;20125;-68
2022/09/11 10:04:16;;;;;;;6.47;2.72;;;20.30;99.90;;;;;;4879590;29;20052;-68
2022/09/11 10:06:48;;;;;;;5.53;3.45;;;20.10;99.90;;;;;;4895439;29;20036;-68
2022/09/11 10:09:32;;;;;;;6.20;2.78;;;20.30;99.90;;;;;;4879680;29;20404;-68
2022/09/11 10:12:05;;;;;;;5.65;2.80;;;20.50;99.90;;;;;;4879258;29;20120;-68
2022/09/11 10:14:41;;;;;;;6.53;2.70;;;20.70;99.90;;;;;;4880239;29;20033;-68
2022/09/11 10:17:32;;;;;;;7.82;3.65;;;21.20;99.90;;;;;;4880754;29;20032;-69
2022/09/11 10:20:17;;;;;;;9.00;2.92;;;21.50;99.90;;;;;;4894691;29;20474;-70
2022/09/11 10:22:44;;;;;;;5.53;2.60;;;21.90;99.90;;;;;;4942073;28;20699;-70
2022/09/11 10:25:28;;;;;;;7.60;3.03;;;22.00;99.90;;;;;;4954421;28;20043;-70
2022/09/11 10:28:13;;;;;;;6.55;2.55;;;22.10;99.90;;;;;;4955603;28;20035;-69
2022/09/11 10:30:54;;;;;;;5.13;2.53;;;22.30;99.90;;;;;;4952934;28;20109;-69
2022/09/11 10:33:35;;;;;;;5.15;2.55;;;22.10;99.90;;;;;;4953232;28;20039;-70
2022/09/11 10:36:07;;;;;;;6.43;3.33;;;22.20;99.90;;;;;;4953166;29;20023;-70
2022/09/11 10:38:43;;;;;;;4.03;2.20;;;22.20;99.90;;;;;;4954225;28;20046;-70
2022/09/11 10:41:12;;;;;;;6.40;2.90;;;22.30;99.90;;;;;;4953077;29;20488;-70
2022/09/11 10:43:59;;;;;;;4.07;2.13;;;22.30;99.90;;;;;;4953726;28;20043;-70
2022/09/11 10:46:31;;;;;;;6.38;3.05;;;22.70;99.90;;;;;;4969069;28;20058;-70
2022/09/11 10:49:21;;;;;;;3.70;1.85;;;22.90;99.90;;;;;;4953753;28;20035;-70
2022/09/11 10:52:15;;;;;;;6.65;3.03;;;23.20;99.90;;;;;;4953821;28;20039;-70
2022/09/11 10:55:18;;;;;;;6.43;3.22;;;23.40;99.90;;;;;;4952886;29;20030;-70
2022/09/11 10:57:54;;;;;;;4.78;2.70;;;23.70;99.90;;;;;;4897466;29;20044;-70
2022/09/11 11:00:27;;;;;;;6.93;2.45;;;23.50;99.90;;;;;;4945055;29;20031;-69
2022/09/11 11:03:16;;;;;;;4.45;2.22;;;23.30;99.90;;;;;;4952309;29;20528;-69
2022/09/11 11:06:15;;;;;;;5.30;2.08;;;23.00;99.90;;;;;;4953872;29;20082;-69
2022/09/11 11:09:02;;;;;;;22.92;7.95;;;23.10;99.90;;;;;;4953475;29;20110;-69
2022/09/11 11:12:08;;;;;;;7.25;2.95;;;23.40;99.90;;;;;;4953587;29;20062;-69
2022/09/11 11:15:15;;;;;;;6.50;2.78;;;23.90;99.90;;;;;;4952596;29;20057;-69
2022/09/11 11:18:04;;;;;;;11.52;4.78;;;23.40;99.90;;;;;;4953718;29;20039;-69
2022/09/11 11:20:44;;;;;;;3.60;1.50;;;23.90;99.90;;;;;;4953307;29;20093;-69
2022/09/11 11:23:43;;;;;;;4.57;2.28;;;23.90;99.90;;;;;;4951780;29;20027;-69
2022/09/11 11:26:54;;;;;;;2.88;1.73;;;24.00;99.90;;;;;;4953536;29;20388;-69
2022/09/11 11:29:53;;;;;;;6.93;2.78;;;23.90;99.90;;;;;;4952580;28;20035;-69
2022/09/11 11:33:01;;;;;;;5.22;2.88;;;24.10;99.90;;;;;;4952823;28;20039;-69
2022/09/11 11:35:48;;;;;;;6.80;2.75;;;24.30;99.90;;;;;;4925596;28;20071;-68
2022/09/11 11:38:42;;;;;;;6.07;3.30;;;24.30;99.90;;;;;;4951724;29;20089;-69
2022/09/11 11:41:17;;;;;;;7.22;3.10;;;24.20;99.90;;;;;;4953101;28;20247;-69
2022/09/11 11:43:47;;;;;;;7.43;3.90;;;23.50;99.90;;;;;;4952346;28;20061;-69
2022/09/11 11:46:42;;;;;;;7.47;3.58;;;23.00;99.90;;;;;;4953049;28;20491;-69
2022/09/11 11:49:27;;;;;;;7.30;3.65;;;22.40;99.90;;;;;;4958582;28;20038;-68
2022/09/11 11:52:12;;;;;;;5.05;2.60;;;21.70;99.90;;;;;;4970856;28;20035;-75
2022/09/11 11:55:16;;;;;;;4.95;2.45;;;21.60;99.90;;;;;;4972277;28;20113;-72
2022/09/11 11:57:57;;;;;;;6.15;3.53;;;21.60;99.90;;;;;;4933668;28;20035;-72
2022/09/11 12:00:22;;;;;;;14.15;3.08;;;21.90;99.90;;;;;;4951135;29;20035;-76
2022/09/11 12:03:06;;;;;;;7.03;3.40;;;21.80;99.90;;;;;;4951178;29;20099;-75
2022/09/11 12:05:33;;;;;;;5.82;3.20;;;21.30;99.90;;;;;;4951439;29;20105;-71
2022/09/11 12:08:00;;;;;;;6.63;3.47;;;21.10;99.90;;;;;;4952882;29;20031;-72
2022/09/11 12:10:39;;;;;;;8.02;3.10;;;21.20;99.90;;;;;;4952231;29;20480;-71
2022/09/11 12:13:12;;;;;;;8.88;2.53;;;21.60;99.90;;;;;;4951005;29;20043;-71
2022/09/11 12:15:38;;;;;;;5.10;2.78;;;21.90;99.90;;;;;;4951117;29;20027;-70
2022/09/11 12:18:23;;;;;;;8.95;3.65;;;21.80;99.90;;;;;;4951432;29;20123;-70
2022/09/11 12:20:50;;;;;;;5.18;3.20;;;21.70;99.90;;;;;;4950797;28;20465;-74
2022/09/11 12:23:53;;;;;;;6.85;3.90;;;21.40;99.90;;;;;;4952515;28;20078;-72
2022/09/11 12:26:27;;;;;;;6.97;3.78;;;21.20;99.90;;;;;;4964481;28;20035;-72
2022/09/11 12:29:11;;;;;;;6.25;3.28;;;21.20;99.90;;;;;;4950934;29;20530;-72
2022/09/11 12:31:49;;;;;;;5.32;3.20;;;21.40;99.90;;;;;;4952082;29;20484;-72
2022/09/11 12:34:36;;;;;;;6.45;3.15;;;21.10;99.90;;;;;;4950672;29;20114;-71
2022/09/11 12:37:13;;;;;;;7.28;3.65;;;21.40;99.90;;;;;;4951137;29;20049;-74
2022/09/11 12:39:58;;;;;;;5.88;3.10;;;21.20;99.90;;;;;;4952169;29;20472;-73
2022/09/11 12:42:26;;;;;;;9.27;3.20;;;21.80;99.90;;;;;;4951846;29;20107;-73
2022/09/11 12:44:53;;;;;;;4.72;2.72;;;22.50;99.90;;;;;;4952556;29;20046;-73
2022/09/11 12:47:39;;;;;;;7.95;3.83;;;22.80;99.90;;;;;;4952185;29;20774;-72
2022/09/11 12:50:04;;;;;;;6.78;2.92;;;23.50;99.90;;;;;;4950670;29;20031;-72
2022/09/11 12:52:39;;;;;;;4.68;2.42;;;23.30;99.90;;;;;;4952719;28;20404;-72
2022/09/11 12:55:40;;;;;;;6.75;3.90;;;22.90;99.90;;;;;;4954767;29;20082;-72
2022/09/11 12:58:10;;;;;;;;;;;22.40;99.90;;;;;;4938393;29;20039;-72
2022/09/11 13:00:42;;;;;;;6.70;3.03;;;22.20;99.90;;;;;;4955645;29;20402;-72
2022/09/11 13:03:22;;;;;;;9.75;3.45;;;21.80;99.90;;;;;;4954375;29;20401;-72
2022/09/11 13:05:59;;;;;;;7.57;3.38;;;22.00;99.90;;;;;;4955716;29;20098;-73
2022/09/11 13:08:29;;;;;;;6.85;4.25;;;22.30;99.90;;;;;;4954776;29;20050;-73
2022/09/11 13:11:36;;;;;;;7.93;3.63;;;22.30;99.90;;;;;;4948010;29;20043;-72
2022/09/11 13:14:05;;;;;;;8.55;3.05;;;22.30;99.90;;;;;;4953728;29;20047;-77
2022/09/11 13:16:35;;;;;;;5.13;2.88;;;22.50;99.90;;;;;;4952125;29;20028;-71
2022/09/11 13:19:18;;;;;;;4.07;2.35;;;22.70;99.90;;;;;;4954279;29;20392;-73
2022/09/11 13:21:48;;;;;;;5.90;2.90;;;23.20;99.90;;;;;;4954371;29;20035;-72
2022/09/11 13:24:34;;;;;;;5.00;2.47;;;24.10;99.90;;;;;;4954878;28;20039;-72
2022/09/11 13:27:27;;;;;;;7.65;2.63;;;24.50;99.90;;;;;;4955306;29;20035;-69